A- A+ FrançaisEnglishEspañol中国

le plus proche LFBO Toulouse-BlagnacLFCL Toulouse-Lasbordes LFBT Tarbes-Lourdes-PyrénéesLFOR Chartres-Champhol

manche à air

La météo aéronautique pour les pilotes, la préparation du vol avec les METAR (METeorological Aerodrome Report, message d'observation des conditions météorologiques pour l'aviation) et Les TAF (Terminal Aerodrome Forecast : message de prévision à court terme des conditions météorologiques pour l'aviation). Et les autres ressources comme les VAC (Visual Approch Chart) et les NOTAM (Notice To Airman) pour préprer les vols.

Aéroport Ronaldsway (Île de Man) / OACI EGNS/ IATA IOM

L'altitude de l'aéroport Ronaldsway est de 16 m=52 ft. Il est situé à proximité de Castletown (Île de Man). La météo générale à 5 jours est disponible pour Whitehaven situé à 85 km.

METAR de l'aéroport Ronaldsway - EGNS

EGNS 270620Z 14010KT 8000 -RA BKN008 OVC016 09/08 Q1022 NOSIG

Décodage du METAR de l'aéroport Ronaldsway (IM)

METAR émis par EGNS le vendredi 27 décembre 2019 à 06:20 heure TU. Attention ce METAR est obsolète car il a été émis il y a 10 heure et 22 minutes.

La visibilité est de 8 km=5 sm.

La température est de 9°C=48 °F et le point rosée est de 8°C=46 °F . Ce qui correspond à 93% d'humidité relative.

Le QNH est de 1022 hPa=30.18 inHg

Vent de 10 kt=19 km/h, orienté à 140°.

Nuages : Couverture nuageuse fragmentée à 800 ft=240 mètres. Couverture nuageuse soudée à 1600 ft=490 mètres.

-RA

Aucun changement significatif dans les deux heures à venir

TAF de l'aéroport Ronaldsway - EGNS

EGNS 270500Z 2706/2715 14015KT 6000 BKN005 TEMPO 2706/2715 2500 -RADZ BKN003 BECMG 2711/2713 20015KT

EGNS 270500Z 2706/2715 14015KT 6000 couverture nuageuse fragmentée à 005 temporairement 2706/2715 2500 faible RADZ couverture nuageuse fragmentée à 003 devenant 2711/2713 20015KT

Aéroport à proximité de Ronaldsway

Météo générale à 5 jours à Whitehaven (85 km)EGNL Aéroport Barrow (89 km)EGAD Aéroport Newtownards (89 km)EGOV Aéroport Valley (93 km)EGOQ Aéroport Mona (93 km)EGAC Aéroport Belfast City (100 km)EGNH Aéroport Blackpool (110 km)

Vue aérienne de l'aéroport Ronaldsway

NOTAM de l'aéroport Ronaldsway

Les NOTAM sont fournis sans aucune garantie de leur actualité. Le pilote est le seul responsable de la vérification de sa validité avant de l'utiliser opérationnellement pour préparer un vol ou l'utiliser lors de sa navigation.

NOTAM Control area (à partir du mercredi 25 décembre 2019 à 06:15 jusqu'au mercredi 1er janvier 2020 à 06:45)

C6793/19 NOTAMN
Q) EGTT/QAEXX/IV/NBO/AE/000/105/5401N00438W021
A) EGNS B) 1912250615 C) 2001010645
E) SLE OF MAN AD/ATZ/CTA CHRISTMAS/NEW YEAR HOURS OF OPERATION:
25 DEC - CLOSED
26 DEC - ATC AVBL 0630, AD AVBL 0645
01 JAN - ATC AVBL 0630, AD AVBL 0645
ALL OTHER PERIODS AS PUBLISHED IN UK AIP
CREATED: 20 Dec 2019 06:36:00
SOURCE: EUECYIYN

Sources des données